עמוד ראשי
METAR-TAF:

METAR-TAF

שדות תעופה :

אטול מידוויי, ארצות הברית

קו רוחב: 28-13N, קו אורך: 177-22W, גובה: 4מטר

METAR: חסר

זמן: 02:08 (12:08 UTC)

תחזית

הדו"ח נערך לפני 41דקות, בשעה 11:27 UTC
תחזית בתוקף מ 15 ב 12 UTC עד 16 ב 12 UTC
רוח 5קשר מכיוון מערב/דרום-מערב
ראות: 10קילומטר
עננים פזורים בגובה 2000רגל
עננים בינוניים בגובה 4000רגל
מ 16 ב 0600UTC
רוח 5קשר מכיוון דרום/דרום-מערב
ראות: 10קילומטר
מעט עננים בגובה 4000רגל
עננים פזורים בגובה 8000רגל

TAF: PMDY 151127Z 1512/1612 25005KT P6SM SCT020 BKN040 FM160600 21005KT P6SM FEW040 SCT080 AMD NOT SKED

תצפיות ותחזיות מזג אוויר לגבי יותר מ- 4,000 שדות תעופה ברחבי העולם. דוחות METAR ו- TAF.

התחנות הזמינות מסומנות בנקודות צהובות ואדומות על גבי המפה.

העבר את העכבר לנקודה הצבעונית על מנת לראות את שם התחנה.

לאחר מכן, לחץ כדי לראות את תוכן ואת תחזיות מזג האוויר.

כדי לשנות את המפה: לחץ על הכפתורים הירוקים עם הפלוס השחור כדי להתקרב; על הכפתור הירוק עם המקף כדי להתרחק; או בחיצים הירוקים למפות סמוכות.


METAR-TAF: